Terminal Aerodrome Forecast
Issued by NWS Blacksburg, VA

Home | Current Version | Previous Version | Text Only | Print | Product List | Glossary On
Versions: 1 2 3 4 5 6 7 8 9 10 11 12
000
FTUS41 KRNK 262336
TAFDAN
TAF
KDAN 262336Z 2700/2724 20007KT P6SM BKN060
     FM270700 21003KT P6SM SCT100
     FM271500 21006KT P6SM SKC
     FM271800 20007KT P6SM SCT050=

USA.gov is the U.S. government's official web portal to all federal, state and local government web resources and services.